sensor_id;sensor_type;location;lat;lon;timestamp;P1;durP1;ratioP1;P2;durP2;ratioP2
11263;SDS011;5689;48.798;9.070;2023-12-28T00:00:24;0.30;;;0.30;;
11263;SDS011;5689;48.798;9.070;2023-12-28T00:02:54;0.30;;;0.30;;
11263;SDS011;5689;48.798;9.070;2023-12-28T00:05:23;0.30;;;0.30;;
11263;SDS011;5689;48.798;9.070;2023-12-28T00:07:51;0.32;;;0.32;;
11263;SDS011;5689;48.798;9.070;2023-12-28T00:10:25;0.30;;;0.30;;
11263;SDS011;5689;48.798;9.070;2023-12-28T00:12:53;0.40;;;0.40;;
11263;SDS011;5689;48.798;9.070;2023-12-28T00:15:22;0.35;;;0.35;;
11263;SDS011;5689;48.798;9.070;2023-12-28T00:17:50;0.40;;;0.40;;
11263;SDS011;5689;48.798;9.070;2023-12-28T00:20:19;0.30;;;0.30;;
11263;SDS011;5689;48.798;9.070;2023-12-28T00:22:48;0.40;;;0.40;;
11263;SDS011;5689;48.798;9.070;2023-12-28T00:25:16;0.30;;;0.30;;
11263;SDS011;5689;48.798;9.070;2023-12-28T00:27:44;0.40;;;0.40;;
11263;SDS011;5689;48.798;9.070;2023-12-28T00:30:13;0.40;;;0.40;;
11263;SDS011;5689;48.798;9.070;2023-12-28T00:32:43;0.40;;;0.40;;
11263;SDS011;5689;48.798;9.070;2023-12-28T00:35:12;0.30;;;0.30;;
11263;SDS011;5689;48.798;9.070;2023-12-28T00:37:42;0.40;;;0.40;;
11263;SDS011;5689;48.798;9.070;2023-12-28T00:40:10;0.40;;;0.40;;
11263;SDS011;5689;48.798;9.070;2023-12-28T00:42:39;0.40;;;0.40;;
11263;SDS011;5689;48.798;9.070;2023-12-28T00:45:07;0.50;;;0.50;;
11263;SDS011;5689;48.798;9.070;2023-12-28T00:47:36;0.30;;;0.30;;
11263;SDS011;5689;48.798;9.070;2023-12-28T00:50:04;0.40;;;0.40;;
11263;SDS011;5689;48.798;9.070;2023-12-28T00:52:33;0.40;;;0.40;;
11263;SDS011;5689;48.798;9.070;2023-12-28T00:55:03;0.40;;;0.40;;
11263;SDS011;5689;48.798;9.070;2023-12-28T00:57:31;0.40;;;0.40;;
11263;SDS011;5689;48.798;9.070;2023-12-28T01:00:00;0.40;;;0.40;;
11263;SDS011;5689;48.798;9.070;2023-12-28T01:02:28;0.40;;;0.40;;
11263;SDS011;5689;48.798;9.070;2023-12-28T01:04:56;0.40;;;0.40;;
11263;SDS011;5689;48.798;9.070;2023-12-28T01:07:25;0.35;;;0.35;;
11263;SDS011;5689;48.798;9.070;2023-12-28T01:09:53;0.30;;;0.30;;
11263;SDS011;5689;48.798;9.070;2023-12-28T01:12:22;0.30;;;0.30;;
11263;SDS011;5689;48.798;9.070;2023-12-28T01:14:50;0.30;;;0.30;;
11263;SDS011;5689;48.798;9.070;2023-12-28T01:17:18;0.40;;;0.40;;
11263;SDS011;5689;48.798;9.070;2023-12-28T01:19:46;0.40;;;0.40;;
11263;SDS011;5689;48.798;9.070;2023-12-28T01:22:15;0.40;;;0.40;;
11263;SDS011;5689;48.798;9.070;2023-12-28T01:24:45;0.40;;;0.40;;
11263;SDS011;5689;48.798;9.070;2023-12-28T01:27:16;0.40;;;0.40;;
11263;SDS011;5689;48.798;9.070;2023-12-28T01:29:45;0.40;;;0.40;;
11263;SDS011;5689;48.798;9.070;2023-12-28T01:32:13;0.40;;;0.40;;
11263;SDS011;5689;48.798;9.070;2023-12-28T01:34:42;0.40;;;0.40;;
11263;SDS011;5689;48.798;9.070;2023-12-28T01:37:11;0.40;;;0.40;;
11263;SDS011;5689;48.798;9.070;2023-12-28T01:39:39;0.50;;;0.50;;
11263;SDS011;5689;48.798;9.070;2023-12-28T01:42:09;0.43;;;0.43;;
11263;SDS011;5689;48.798;9.070;2023-12-28T01:44:37;0.40;;;0.40;;
11263;SDS011;5689;48.798;9.070;2023-12-28T01:47:07;0.50;;;0.50;;
11263;SDS011;5689;48.798;9.070;2023-12-28T01:49:35;0.40;;;0.40;;
11263;SDS011;5689;48.798;9.070;2023-12-28T01:52:04;0.60;;;0.60;;
11263;SDS011;5689;48.798;9.070;2023-12-28T01:54:34;0.50;;;0.50;;
11263;SDS011;5689;48.798;9.070;2023-12-28T01:57:04;0.60;;;0.60;;
11263;SDS011;5689;48.798;9.070;2023-12-28T01:59:32;0.60;;;0.60;;
11263;SDS011;5689;48.798;9.070;2023-12-28T02:02:01;0.50;;;0.50;;
11263;SDS011;5689;48.798;9.070;2023-12-28T02:04:32;0.50;;;0.50;;
11263;SDS011;5689;48.798;9.070;2023-12-28T02:07:01;0.60;;;0.60;;
11263;SDS011;5689;48.798;9.070;2023-12-28T02:09:29;0.50;;;0.50;;
11263;SDS011;5689;48.798;9.070;2023-12-28T02:11:57;0.50;;;0.50;;
11263;SDS011;5689;48.798;9.070;2023-12-28T02:14:25;0.50;;;0.50;;
11263;SDS011;5689;48.798;9.070;2023-12-28T02:16:56;0.60;;;0.60;;
11263;SDS011;5689;48.798;9.070;2023-12-28T02:19:36;0.50;;;0.50;;
11263;SDS011;5689;48.798;9.070;2023-12-28T02:22:09;0.50;;;0.50;;
11263;SDS011;5689;48.798;9.070;2023-12-28T02:25:02;0.50;;;0.50;;
11263;SDS011;5689;48.798;9.070;2023-12-28T02:27:33;0.60;;;0.60;;
11263;SDS011;5689;48.798;9.070;2023-12-28T02:30:04;0.50;;;0.50;;
11263;SDS011;5689;48.798;9.070;2023-12-28T02:32:36;0.50;;;0.50;;
11263;SDS011;5689;48.798;9.070;2023-12-28T02:35:14;0.50;;;0.50;;
11263;SDS011;5689;48.798;9.070;2023-12-28T02:37:44;0.60;;;0.60;;
11263;SDS011;5689;48.798;9.070;2023-12-28T02:40:19;0.40;;;0.40;;
11263;SDS011;5689;48.798;9.070;2023-12-28T02:42:48;0.50;;;0.50;;
11263;SDS011;5689;48.798;9.070;2023-12-28T02:45:17;0.40;;;0.40;;
11263;SDS011;5689;48.798;9.070;2023-12-28T02:47:45;0.40;;;0.40;;
11263;SDS011;5689;48.798;9.070;2023-12-28T02:50:13;0.50;;;0.50;;
11263;SDS011;5689;48.798;9.070;2023-12-28T02:52:41;0.50;;;0.50;;
11263;SDS011;5689;48.798;9.070;2023-12-28T02:55:09;0.40;;;0.40;;
11263;SDS011;5689;48.798;9.070;2023-12-28T02:57:39;0.50;;;0.50;;
11263;SDS011;5689;48.798;9.070;2023-12-28T03:00:08;0.40;;;0.40;;
11263;SDS011;5689;48.798;9.070;2023-12-28T03:02:37;0.40;;;0.40;;
11263;SDS011;5689;48.798;9.070;2023-12-28T03:05:05;0.43;;;0.43;;
11263;SDS011;5689;48.798;9.070;2023-12-28T03:07:34;0.40;;;0.40;;
11263;SDS011;5689;48.798;9.070;2023-12-28T03:10:03;0.30;;;0.30;;
11263;SDS011;5689;48.798;9.070;2023-12-28T03:12:32;0.40;;;0.40;;
11263;SDS011;5689;48.798;9.070;2023-12-28T03:15:02;0.40;;;0.40;;
11263;SDS011;5689;48.798;9.070;2023-12-28T03:17:30;0.40;;;0.40;;
11263;SDS011;5689;48.798;9.070;2023-12-28T03:19:59;0.40;;;0.40;;
11263;SDS011;5689;48.798;9.070;2023-12-28T03:22:27;0.45;;;0.45;;
11263;SDS011;5689;48.798;9.070;2023-12-28T03:24:55;0.40;;;0.40;;
11263;SDS011;5689;48.798;9.070;2023-12-28T03:27:23;0.40;;;0.40;;
11263;SDS011;5689;48.798;9.070;2023-12-28T03:29:54;0.50;;;0.50;;
11263;SDS011;5689;48.798;9.070;2023-12-28T03:32:23;0.40;;;0.40;;
11263;SDS011;5689;48.798;9.070;2023-12-28T03:34:51;0.40;;;0.40;;
11263;SDS011;5689;48.798;9.070;2023-12-28T03:37:19;0.40;;;0.40;;
11263;SDS011;5689;48.798;9.070;2023-12-28T03:39:49;0.32;;;0.32;;
11263;SDS011;5689;48.798;9.070;2023-12-28T03:42:17;0.40;;;0.40;;
11263;SDS011;5689;48.798;9.070;2023-12-28T03:44:45;0.30;;;0.30;;
11263;SDS011;5689;48.798;9.070;2023-12-28T03:47:13;0.40;;;0.40;;
11263;SDS011;5689;48.798;9.070;2023-12-28T03:49:42;0.30;;;0.30;;
11263;SDS011;5689;48.798;9.070;2023-12-28T03:52:12;0.30;;;0.30;;
11263;SDS011;5689;48.798;9.070;2023-12-28T03:54:40;0.30;;;0.30;;
11263;SDS011;5689;48.798;9.070;2023-12-28T03:57:08;0.30;;;0.30;;
11263;SDS011;5689;48.798;9.070;2023-12-28T03:59:36;0.30;;;0.30;;
11263;SDS011;5689;48.798;9.070;2023-12-28T04:02:04;0.38;;;0.38;;
11263;SDS011;5689;48.798;9.070;2023-12-28T04:04:33;0.35;;;0.35;;
11263;SDS011;5689;48.798;9.070;2023-12-28T04:07:02;0.30;;;0.30;;
11263;SDS011;5689;48.798;9.070;2023-12-28T04:09:33;0.30;;;0.30;;
11263;SDS011;5689;48.798;9.070;2023-12-28T04:12:01;0.30;;;0.30;;
11263;SDS011;5689;48.798;9.070;2023-12-28T04:14:30;0.20;;;0.20;;
11263;SDS011;5689;48.798;9.070;2023-12-28T04:16:58;0.20;;;0.20;;
11263;SDS011;5689;48.798;9.070;2023-12-28T04:19:26;0.32;;;0.32;;
11263;SDS011;5689;48.798;9.070;2023-12-28T04:21:54;0.30;;;0.30;;
11263;SDS011;5689;48.798;9.070;2023-12-28T04:24:24;0.30;;;0.30;;
11263;SDS011;5689;48.798;9.070;2023-12-28T04:26:52;0.10;;;0.10;;
11263;SDS011;5689;48.798;9.070;2023-12-28T04:29:20;0.20;;;0.20;;
11263;SDS011;5689;48.798;9.070;2023-12-28T04:31:48;0.20;;;0.20;;
11263;SDS011;5689;48.798;9.070;2023-12-28T04:34:19;0.20;;;0.20;;
11263;SDS011;5689;48.798;9.070;2023-12-28T04:36:47;0.10;;;0.10;;
11263;SDS011;5689;48.798;9.070;2023-12-28T04:39:15;0.10;;;0.10;;
11263;SDS011;5689;48.798;9.070;2023-12-28T04:41:45;0.10;;;0.10;;
11263;SDS011;5689;48.798;9.070;2023-12-28T04:44:13;0.10;;;0.10;;
11263;SDS011;5689;48.798;9.070;2023-12-28T04:46:41;0.10;;;0.10;;
11263;SDS011;5689;48.798;9.070;2023-12-28T04:49:11;0.10;;;0.10;;
11263;SDS011;5689;48.798;9.070;2023-12-28T04:51:41;0.20;;;0.20;;
11263;SDS011;5689;48.798;9.070;2023-12-28T04:54:10;0.20;;;0.20;;
11263;SDS011;5689;48.798;9.070;2023-12-28T04:56:38;0.10;;;0.10;;
11263;SDS011;5689;48.798;9.070;2023-12-28T04:59:08;0.10;;;0.10;;
11263;SDS011;5689;48.798;9.070;2023-12-28T05:01:40;0.20;;;0.20;;
11263;SDS011;5689;48.798;9.070;2023-12-28T05:04:08;0.13;;;0.13;;
11263;SDS011;5689;48.798;9.070;2023-12-28T05:06:38;0.10;;;0.10;;
11263;SDS011;5689;48.798;9.070;2023-12-28T05:09:06;0.20;;;0.20;;
11263;SDS011;5689;48.798;9.070;2023-12-28T05:11:35;0.10;;;0.10;;
11263;SDS011;5689;48.798;9.070;2023-12-28T05:14:03;0.20;;;0.20;;
11263;SDS011;5689;48.798;9.070;2023-12-28T05:16:33;0.10;;;0.10;;
11263;SDS011;5689;48.798;9.070;2023-12-28T05:19:01;0.20;;;0.20;;
11263;SDS011;5689;48.798;9.070;2023-12-28T05:21:29;0.10;;;0.10;;
11263;SDS011;5689;48.798;9.070;2023-12-28T05:23:57;0.10;;;0.10;;
11263;SDS011;5689;48.798;9.070;2023-12-28T05:26:26;0.10;;;0.10;;
11263;SDS011;5689;48.798;9.070;2023-12-28T05:28:54;0.10;;;0.10;;
11263;SDS011;5689;48.798;9.070;2023-12-28T05:31:22;0.10;;;0.10;;
11263;SDS011;5689;48.798;9.070;2023-12-28T05:33:51;0.17;;;0.17;;
11263;SDS011;5689;48.798;9.070;2023-12-28T05:36:20;0.20;;;0.20;;
11263;SDS011;5689;48.798;9.070;2023-12-28T05:38:48;0.10;;;0.10;;
11263;SDS011;5689;48.798;9.070;2023-12-28T05:41:16;0.20;;;0.20;;
11263;SDS011;5689;48.798;9.070;2023-12-28T05:43:44;0.10;;;0.10;;
11263;SDS011;5689;48.798;9.070;2023-12-28T05:46:12;0.10;;;0.10;;
11263;SDS011;5689;48.798;9.070;2023-12-28T05:48:41;0.20;;;0.20;;
11263;SDS011;5689;48.798;9.070;2023-12-28T05:51:10;0.17;;;0.17;;
11263;SDS011;5689;48.798;9.070;2023-12-28T05:53:39;0.10;;;0.10;;
11263;SDS011;5689;48.798;9.070;2023-12-28T05:56:08;0.20;;;0.20;;
11263;SDS011;5689;48.798;9.070;2023-12-28T05:58:36;0.10;;;0.10;;
11263;SDS011;5689;48.798;9.070;2023-12-28T06:01:05;0.20;;;0.20;;
11263;SDS011;5689;48.798;9.070;2023-12-28T06:03:33;0.20;;;0.20;;
11263;SDS011;5689;48.798;9.070;2023-12-28T06:06:01;0.10;;;0.10;;
11263;SDS011;5689;48.798;9.070;2023-12-28T06:08:31;0.15;;;0.15;;
11263;SDS011;5689;48.798;9.070;2023-12-28T06:10:59;0.20;;;0.20;;
11263;SDS011;5689;48.798;9.070;2023-12-28T06:13:27;0.10;;;0.10;;
11263;SDS011;5689;48.798;9.070;2023-12-28T06:15:56;0.20;;;0.20;;
11263;SDS011;5689;48.798;9.070;2023-12-28T06:18:24;0.20;;;0.20;;
11263;SDS011;5689;48.798;9.070;2023-12-28T06:20:52;0.10;;;0.10;;
11263;SDS011;5689;48.798;9.070;2023-12-28T06:23:20;0.20;;;0.20;;
11263;SDS011;5689;48.798;9.070;2023-12-28T06:25:50;0.10;;;0.10;;
11263;SDS011;5689;48.798;9.070;2023-12-28T06:28:18;0.10;;;0.10;;
11263;SDS011;5689;48.798;9.070;2023-12-28T06:30:47;0.10;;;0.10;;
11263;SDS011;5689;48.798;9.070;2023-12-28T06:33:15;0.10;;;0.10;;
11263;SDS011;5689;48.798;9.070;2023-12-28T06:35:43;0.17;;;0.17;;
11263;SDS011;5689;48.798;9.070;2023-12-28T06:38:11;0.10;;;0.10;;
11263;SDS011;5689;48.798;9.070;2023-12-28T06:40:39;0.20;;;0.20;;
11263;SDS011;5689;48.798;9.070;2023-12-28T06:43:09;0.30;;;0.30;;
11263;SDS011;5689;48.798;9.070;2023-12-28T06:45:37;0.30;;;0.30;;
11263;SDS011;5689;48.798;9.070;2023-12-28T06:48:05;0.30;;;0.30;;
11263;SDS011;5689;48.798;9.070;2023-12-28T06:50:33;0.30;;;0.30;;
11263;SDS011;5689;48.798;9.070;2023-12-28T06:53:01;0.20;;;0.20;;
11263;SDS011;5689;48.798;9.070;2023-12-28T06:55:30;0.40;;;0.40;;
11263;SDS011;5689;48.798;9.070;2023-12-28T06:57:58;0.30;;;0.30;;
11263;SDS011;5689;48.798;9.070;2023-12-28T07:00:27;0.25;;;0.25;;
11263;SDS011;5689;48.798;9.070;2023-12-28T07:02:55;0.20;;;0.20;;
11263;SDS011;5689;48.798;9.070;2023-12-28T07:05:24;0.30;;;0.30;;
11263;SDS011;5689;48.798;9.070;2023-12-28T07:07:52;0.20;;;0.20;;
11263;SDS011;5689;48.798;9.070;2023-12-28T07:10:20;0.20;;;0.20;;
11263;SDS011;5689;48.798;9.070;2023-12-28T07:12:48;0.30;;;0.30;;
11263;SDS011;5689;48.798;9.070;2023-12-28T07:15:16;0.20;;;0.20;;
11263;SDS011;5689;48.798;9.070;2023-12-28T07:17:46;0.20;;;0.20;;
11263;SDS011;5689;48.798;9.070;2023-12-28T07:20:14;0.30;;;0.30;;
11263;SDS011;5689;48.798;9.070;2023-12-28T07:22:42;0.20;;;0.20;;
11263;SDS011;5689;48.798;9.070;2023-12-28T07:25:10;0.20;;;0.20;;
11263;SDS011;5689;48.798;9.070;2023-12-28T07:27:38;0.20;;;0.20;;
11263;SDS011;5689;48.798;9.070;2023-12-28T07:30:08;0.30;;;0.30;;
11263;SDS011;5689;48.798;9.070;2023-12-28T07:32:36;0.30;;;0.30;;
11263;SDS011;5689;48.798;9.070;2023-12-28T07:35:06;0.20;;;0.20;;
11263;SDS011;5689;48.798;9.070;2023-12-28T07:37:35;0.20;;;0.20;;
11263;SDS011;5689;48.798;9.070;2023-12-28T07:40:03;0.20;;;0.20;;
11263;SDS011;5689;48.798;9.070;2023-12-28T07:42:32;0.20;;;0.20;;
11263;SDS011;5689;48.798;9.070;2023-12-28T07:45:00;0.30;;;0.30;;
11263;SDS011;5689;48.798;9.070;2023-12-28T07:47:28;0.20;;;0.20;;
11263;SDS011;5689;48.798;9.070;2023-12-28T07:49:57;0.30;;;0.30;;
11263;SDS011;5689;48.798;9.070;2023-12-28T07:52:28;0.20;;;0.20;;
11263;SDS011;5689;48.798;9.070;2023-12-28T07:54:56;0.30;;;0.30;;
11263;SDS011;5689;48.798;9.070;2023-12-28T07:57:25;0.20;;;0.20;;
11263;SDS011;5689;48.798;9.070;2023-12-28T07:59:54;0.20;;;0.20;;
11263;SDS011;5689;48.798;9.070;2023-12-28T08:02:22;0.30;;;0.30;;
11263;SDS011;5689;48.798;9.070;2023-12-28T08:04:50;0.30;;;0.30;;
11263;SDS011;5689;48.798;9.070;2023-12-28T08:07:18;0.30;;;0.30;;
11263;SDS011;5689;48.798;9.070;2023-12-28T08:09:48;0.30;;;0.30;;
11263;SDS011;5689;48.798;9.070;2023-12-28T08:12:16;0.30;;;0.30;;
11263;SDS011;5689;48.798;9.070;2023-12-28T08:14:45;0.30;;;0.30;;
11263;SDS011;5689;48.798;9.070;2023-12-28T08:17:13;0.20;;;0.20;;
11263;SDS011;5689;48.798;9.070;2023-12-28T08:19:41;0.30;;;0.30;;
11263;SDS011;5689;48.798;9.070;2023-12-28T08:22:09;0.25;;;0.25;;
11263;SDS011;5689;48.798;9.070;2023-12-28T08:24:37;0.30;;;0.30;;
11263;SDS011;5689;48.798;9.070;2023-12-28T08:27:07;0.20;;;0.20;;
11263;SDS011;5689;48.798;9.070;2023-12-28T08:29:35;0.22;;;0.22;;
11263;SDS011;5689;48.798;9.070;2023-12-28T08:32:03;0.30;;;0.30;;
11263;SDS011;5689;48.798;9.070;2023-12-28T08:34:33;0.30;;;0.30;;
11263;SDS011;5689;48.798;9.070;2023-12-28T08:37:01;0.30;;;0.30;;
11263;SDS011;5689;48.798;9.070;2023-12-28T08:39:29;0.20;;;0.20;;
11263;SDS011;5689;48.798;9.070;2023-12-28T08:41:57;0.30;;;0.30;;
11263;SDS011;5689;48.798;9.070;2023-12-28T08:44:27;0.22;;;0.22;;
11263;SDS011;5689;48.798;9.070;2023-12-28T08:46:55;0.20;;;0.20;;
11263;SDS011;5689;48.798;9.070;2023-12-28T08:49:23;0.20;;;0.20;;
11263;SDS011;5689;48.798;9.070;2023-12-28T08:51:51;0.20;;;0.20;;
11263;SDS011;5689;48.798;9.070;2023-12-28T08:54:19;0.20;;;0.20;;
11263;SDS011;5689;48.798;9.070;2023-12-28T08:56:48;0.30;;;0.30;;
11263;SDS011;5689;48.798;9.070;2023-12-28T08:59:16;0.20;;;0.20;;
11263;SDS011;5689;48.798;9.070;2023-12-28T09:01:46;0.30;;;0.30;;
11263;SDS011;5689;48.798;9.070;2023-12-28T09:04:14;0.30;;;0.30;;
11263;SDS011;5689;48.798;9.070;2023-12-28T09:06:42;0.20;;;0.20;;
11263;SDS011;5689;48.798;9.070;2023-12-28T09:09:11;0.30;;;0.30;;
11263;SDS011;5689;48.798;9.070;2023-12-28T09:11:39;0.20;;;0.20;;
11263;SDS011;5689;48.798;9.070;2023-12-28T09:14:07;0.20;;;0.20;;
11263;SDS011;5689;48.798;9.070;2023-12-28T09:16:35;0.20;;;0.20;;
11263;SDS011;5689;48.798;9.070;2023-12-28T09:19:06;0.30;;;0.30;;
11263;SDS011;5689;48.798;9.070;2023-12-28T09:21:35;0.20;;;0.20;;
11263;SDS011;5689;48.798;9.070;2023-12-28T09:24:03;0.20;;;0.20;;
11263;SDS011;5689;48.798;9.070;2023-12-28T09:26:31;0.30;;;0.30;;
11263;SDS011;5689;48.798;9.070;2023-12-28T09:28:59;0.20;;;0.20;;
11263;SDS011;5689;48.798;9.070;2023-12-28T09:31:28;0.20;;;0.20;;
11263;SDS011;5689;48.798;9.070;2023-12-28T09:33:56;0.20;;;0.20;;
11263;SDS011;5689;48.798;9.070;2023-12-28T09:36:26;0.20;;;0.20;;
11263;SDS011;5689;48.798;9.070;2023-12-28T09:38:54;0.20;;;0.20;;
11263;SDS011;5689;48.798;9.070;2023-12-28T09:41:25;0.20;;;0.20;;
11263;SDS011;5689;48.798;9.070;2023-12-28T09:43:54;0.20;;;0.20;;
11263;SDS011;5689;48.798;9.070;2023-12-28T09:46:35;0.20;;;0.20;;
11263;SDS011;5689;48.798;9.070;2023-12-28T09:49:05;0.20;;;0.20;;
11263;SDS011;5689;48.798;9.070;2023-12-28T09:51:34;0.20;;;0.20;;
11263;SDS011;5689;48.798;9.070;2023-12-28T09:54:03;0.20;;;0.20;;
11263;SDS011;5689;48.798;9.070;2023-12-28T09:56:32;0.20;;;0.20;;
11263;SDS011;5689;48.798;9.070;2023-12-28T09:59:01;0.20;;;0.20;;
11263;SDS011;5689;48.798;9.070;2023-12-28T10:01:31;0.20;;;0.20;;
11263;SDS011;5689;48.798;9.070;2023-12-28T10:04:02;0.20;;;0.20;;
11263;SDS011;5689;48.798;9.070;2023-12-28T10:06:30;0.20;;;0.20;;
11263;SDS011;5689;48.798;9.070;2023-12-28T10:09:00;0.30;;;0.30;;
11263;SDS011;5689;48.798;9.070;2023-12-28T10:11:28;0.20;;;0.20;;
11263;SDS011;5689;48.798;9.070;2023-12-28T10:13:58;0.20;;;0.20;;
11263;SDS011;5689;48.798;9.070;2023-12-28T10:16:26;0.20;;;0.20;;
11263;SDS011;5689;48.798;9.070;2023-12-28T10:18:55;0.20;;;0.20;;
11263;SDS011;5689;48.798;9.070;2023-12-28T10:21:25;0.20;;;0.20;;
11263;SDS011;5689;48.798;9.070;2023-12-28T10:23:53;0.20;;;0.20;;
11263;SDS011;5689;48.798;9.070;2023-12-28T10:26:22;0.20;;;0.20;;
11263;SDS011;5689;48.798;9.070;2023-12-28T10:28:56;0.20;;;0.20;;
11263;SDS011;5689;48.798;9.070;2023-12-28T10:31:25;0.20;;;0.20;;
11263;SDS011;5689;48.798;9.070;2023-12-28T10:33:53;0.20;;;0.20;;
11263;SDS011;5689;48.798;9.070;2023-12-28T10:36:25;0.20;;;0.20;;
11263;SDS011;5689;48.798;9.070;2023-12-28T10:38:54;0.20;;;0.20;;
11263;SDS011;5689;48.798;9.070;2023-12-28T10:41:26;0.20;;;0.20;;
11263;SDS011;5689;48.798;9.070;2023-12-28T10:44:00;0.20;;;0.20;;
11263;SDS011;5689;48.798;9.070;2023-12-28T10:46:33;0.20;;;0.20;;
11263;SDS011;5689;48.798;9.070;2023-12-28T10:49:10;0.20;;;0.20;;
11263;SDS011;5689;48.798;9.070;2023-12-28T10:51:40;0.20;;;0.20;;
11263;SDS011;5689;48.798;9.070;2023-12-28T10:54:19;0.20;;;0.20;;
11263;SDS011;5689;48.798;9.070;2023-12-28T10:56:59;0.20;;;0.20;;
11263;SDS011;5689;48.798;9.070;2023-12-28T10:59:35;0.20;;;0.20;;
11263;SDS011;5689;48.798;9.070;2023-12-28T11:02:12;0.20;;;0.20;;
11263;SDS011;5689;48.798;9.070;2023-12-28T11:04:45;0.20;;;0.20;;
11263;SDS011;5689;48.798;9.070;2023-12-28T11:07:17;0.20;;;0.20;;
11263;SDS011;5689;48.798;9.070;2023-12-28T11:09:46;0.10;;;0.10;;
11263;SDS011;5689;48.798;9.070;2023-12-28T11:12:17;0.20;;;0.20;;
11263;SDS011;5689;48.798;9.070;2023-12-28T11:14:46;0.17;;;0.17;;
11263;SDS011;5689;48.798;9.070;2023-12-28T11:17:17;0.20;;;0.20;;
11263;SDS011;5689;48.798;9.070;2023-12-28T11:19:46;0.20;;;0.20;;
11263;SDS011;5689;48.798;9.070;2023-12-28T11:22:17;0.20;;;0.20;;
11263;SDS011;5689;48.798;9.070;2023-12-28T11:24:45;0.20;;;0.20;;
11263;SDS011;5689;48.798;9.070;2023-12-28T11:27:13;0.20;;;0.20;;
11263;SDS011;5689;48.798;9.070;2023-12-28T11:29:44;0.20;;;0.20;;
11263;SDS011;5689;48.798;9.070;2023-12-28T11:32:15;0.20;;;0.20;;
11263;SDS011;5689;48.798;9.070;2023-12-28T11:34:43;0.22;;;0.22;;
11263;SDS011;5689;48.798;9.070;2023-12-28T11:37:12;0.20;;;0.20;;
11263;SDS011;5689;48.798;9.070;2023-12-28T11:39:46;0.20;;;0.20;;
11263;SDS011;5689;48.798;9.070;2023-12-28T11:42:19;0.20;;;0.20;;
11263;SDS011;5689;48.798;9.070;2023-12-28T11:44:53;0.10;;;0.10;;
11263;SDS011;5689;48.798;9.070;2023-12-28T11:47:22;0.20;;;0.20;;
11263;SDS011;5689;48.798;9.070;2023-12-28T11:49:53;0.20;;;0.20;;
11263;SDS011;5689;48.798;9.070;2023-12-28T11:52:22;0.20;;;0.20;;
11263;SDS011;5689;48.798;9.070;2023-12-28T11:54:51;0.20;;;0.20;;
11263;SDS011;5689;48.798;9.070;2023-12-28T11:57:20;0.10;;;0.10;;
11263;SDS011;5689;48.798;9.070;2023-12-28T11:59:52;0.20;;;0.20;;
11263;SDS011;5689;48.798;9.070;2023-12-28T12:02:21;0.20;;;0.20;;
11263;SDS011;5689;48.798;9.070;2023-12-28T12:04:50;0.20;;;0.20;;
11263;SDS011;5689;48.798;9.070;2023-12-28T12:07:20;0.10;;;0.10;;
11263;SDS011;5689;48.798;9.070;2023-12-28T12:09:48;0.28;;;0.28;;
11263;SDS011;5689;48.798;9.070;2023-12-28T12:12:16;0.20;;;0.20;;
11263;SDS011;5689;48.798;9.070;2023-12-28T12:14:45;0.20;;;0.20;;
11263;SDS011;5689;48.798;9.070;2023-12-28T12:17:14;0.10;;;0.10;;
11263;SDS011;5689;48.798;9.070;2023-12-28T12:19:43;0.20;;;0.20;;
11263;SDS011;5689;48.798;9.070;2023-12-28T12:22:11;0.20;;;0.20;;
11263;SDS011;5689;48.798;9.070;2023-12-28T12:24:41;0.20;;;0.20;;
11263;SDS011;5689;48.798;9.070;2023-12-28T12:27:11;0.20;;;0.20;;
11263;SDS011;5689;48.798;9.070;2023-12-28T12:29:39;0.20;;;0.20;;
11263;SDS011;5689;48.798;9.070;2023-12-28T12:32:08;0.20;;;0.20;;
11263;SDS011;5689;48.798;9.070;2023-12-28T12:34:37;0.10;;;0.10;;
11263;SDS011;5689;48.798;9.070;2023-12-28T12:37:07;0.20;;;0.20;;
11263;SDS011;5689;48.798;9.070;2023-12-28T12:39:35;0.20;;;0.20;;
11263;SDS011;5689;48.798;9.070;2023-12-28T12:42:03;0.20;;;0.20;;
11263;SDS011;5689;48.798;9.070;2023-12-28T12:44:32;0.20;;;0.20;;
11263;SDS011;5689;48.798;9.070;2023-12-28T12:47:00;0.20;;;0.20;;
11263;SDS011;5689;48.798;9.070;2023-12-28T12:49:30;0.20;;;0.20;;
11263;SDS011;5689;48.798;9.070;2023-12-28T12:52:00;0.20;;;0.20;;
11263;SDS011;5689;48.798;9.070;2023-12-28T12:54:29;0.20;;;0.20;;
11263;SDS011;5689;48.798;9.070;2023-12-28T12:56:57;0.20;;;0.20;;
11263;SDS011;5689;48.798;9.070;2023-12-28T12:59:26;0.20;;;0.20;;
11263;SDS011;5689;48.798;9.070;2023-12-28T13:01:54;0.20;;;0.20;;
11263;SDS011;5689;48.798;9.070;2023-12-28T13:04:22;0.25;;;0.25;;
11263;SDS011;5689;48.798;9.070;2023-12-28T13:06:51;0.20;;;0.20;;
11263;SDS011;5689;48.798;9.070;2023-12-28T13:09:20;0.28;;;0.28;;
11263;SDS011;5689;48.798;9.070;2023-12-28T13:11:49;0.20;;;0.20;;
11263;SDS011;5689;48.798;9.070;2023-12-28T13:14:18;0.20;;;0.20;;
11263;SDS011;5689;48.798;9.070;2023-12-28T13:16:46;0.20;;;0.20;;
11263;SDS011;5689;48.798;9.070;2023-12-28T13:19:22;0.20;;;0.20;;
11263;SDS011;5689;48.798;9.070;2023-12-28T13:21:50;0.20;;;0.20;;
11263;SDS011;5689;48.798;9.070;2023-12-28T13:24:20;0.20;;;0.20;;
11263;SDS011;5689;48.798;9.070;2023-12-28T13:26:48;0.20;;;0.20;;
11263;SDS011;5689;48.798;9.070;2023-12-28T13:29:16;0.15;;;0.15;;
11263;SDS011;5689;48.798;9.070;2023-12-28T13:31:44;0.20;;;0.20;;
11263;SDS011;5689;48.798;9.070;2023-12-28T13:34:16;0.20;;;0.20;;
11263;SDS011;5689;48.798;9.070;2023-12-28T13:36:45;0.20;;;0.20;;
11263;SDS011;5689;48.798;9.070;2023-12-28T13:39:14;0.20;;;0.20;;
11263;SDS011;5689;48.798;9.070;2023-12-28T13:41:45;0.20;;;0.20;;
11263;SDS011;5689;48.798;9.070;2023-12-28T13:44:13;0.20;;;0.20;;
11263;SDS011;5689;48.798;9.070;2023-12-28T13:46:41;0.20;;;0.20;;
11263;SDS011;5689;48.798;9.070;2023-12-28T13:49:09;0.20;;;0.20;;
11263;SDS011;5689;48.798;9.070;2023-12-28T13:51:37;0.20;;;0.20;;
11263;SDS011;5689;48.798;9.070;2023-12-28T13:54:05;0.20;;;0.20;;
11263;SDS011;5689;48.798;9.070;2023-12-28T13:56:34;0.20;;;0.20;;
11263;SDS011;5689;48.798;9.070;2023-12-28T13:59:03;0.20;;;0.20;;
11263;SDS011;5689;48.798;9.070;2023-12-28T14:01:31;0.20;;;0.20;;
11263;SDS011;5689;48.798;9.070;2023-12-28T14:04:00;0.20;;;0.20;;
11263;SDS011;5689;48.798;9.070;2023-12-28T14:06:29;0.20;;;0.20;;
11263;SDS011;5689;48.798;9.070;2023-12-28T14:08:57;0.20;;;0.20;;
11263;SDS011;5689;48.798;9.070;2023-12-28T14:11:25;0.20;;;0.20;;
11263;SDS011;5689;48.798;9.070;2023-12-28T14:13:54;0.20;;;0.20;;
11263;SDS011;5689;48.798;9.070;2023-12-28T14:16:24;0.20;;;0.20;;
11263;SDS011;5689;48.798;9.070;2023-12-28T14:18:52;0.25;;;0.25;;
11263;SDS011;5689;48.798;9.070;2023-12-28T14:21:20;0.20;;;0.20;;
11263;SDS011;5689;48.798;9.070;2023-12-28T14:23:49;0.30;;;0.30;;
11263;SDS011;5689;48.798;9.070;2023-12-28T14:26:18;0.20;;;0.20;;
11263;SDS011;5689;48.798;9.070;2023-12-28T14:28:49;0.20;;;0.20;;
11263;SDS011;5689;48.798;9.070;2023-12-28T14:31:18;0.30;;;0.30;;
11263;SDS011;5689;48.798;9.070;2023-12-28T14:33:48;0.20;;;0.20;;
11263;SDS011;5689;48.798;9.070;2023-12-28T14:36:19;0.30;;;0.30;;
11263;SDS011;5689;48.798;9.070;2023-12-28T14:38:54;0.30;;;0.30;;
11263;SDS011;5689;48.798;9.070;2023-12-28T14:41:22;0.20;;;0.20;;
11263;SDS011;5689;48.798;9.070;2023-12-28T14:43:50;0.20;;;0.20;;
11263;SDS011;5689;48.798;9.070;2023-12-28T14:46:18;0.20;;;0.20;;
11263;SDS011;5689;48.798;9.070;2023-12-28T14:48:48;0.20;;;0.20;;
11263;SDS011;5689;48.798;9.070;2023-12-28T14:51:16;0.22;;;0.22;;
11263;SDS011;5689;48.798;9.070;2023-12-28T14:53:44;0.22;;;0.22;;
11263;SDS011;5689;48.798;9.070;2023-12-28T14:56:13;0.20;;;0.20;;
11263;SDS011;5689;48.798;9.070;2023-12-28T14:58:42;0.20;;;0.20;;
11263;SDS011;5689;48.798;9.070;2023-12-28T15:01:13;0.20;;;0.20;;
11263;SDS011;5689;48.798;9.070;2023-12-28T15:03:42;0.30;;;0.30;;
11263;SDS011;5689;48.798;9.070;2023-12-28T15:06:12;0.20;;;0.20;;
11263;SDS011;5689;48.798;9.070;2023-12-28T15:08:40;0.20;;;0.20;;
11263;SDS011;5689;48.798;9.070;2023-12-28T15:11:08;0.20;;;0.20;;